Terminal Aerodrome Forecast
Issued by NWS Brownsville, TX

Current Version | Previous Version | Text Only | Print | Product List | Glossary On
Versions: 1 2 3 4 5 6 7 8 9 10 11 12 13 14
133
FTUS44 KBRO 260014 AAA
TAFMFE
TAF AMD
KMFE 260014Z 2600/2624 15021G28KT P6SM -RA SCT035 BKN060 BKN090
     FM260300 14010KT P6SM SCT025
     FM261500 15014KT P6SM BKN040
     FM261800 14016G22KT P6SM FEW250 PROB30 2620/2622 P6SM TS
      BKN050CB=

USA.gov is the U.S. government's official web portal to all federal, state and local government web resources and services.